Sand Lake, South Dakota
Current Conditions -  °F | °C
As of 6:53 AM on Monday 20 Oct 2014 (Local Time) from KABR Reporting Station
Clear Clear  
Wind Chill: 24°   Ceiling: Unl
Heat Index: 29°   Visibility: 10mi
Dew Point: 27°   Wind: 5mph
Humidity: 92%   Direction: 150°SSE
Pressure: 30.07"   Gusts: NA
Location:  45.6832°N, 98.2967°W
Report Text: KABR 201153Z AUTO 15004KT 10SM CLR M02/M03 A3007 RMK AO2 SLP188 T10171028 10067 21017 51012
Loading
Personal Weather Stations






























Interactive Weather Map
Tropical Storm Tracking
New forecast layout! Learn more

10-Day Weather Forecast

Advertisements
Track Severe Weather on mobile